Time;durP1;ratioP1;P1;durP2;ratioP2;P2;SDS_P1;SDS_P2;PMS_P1;PMS_P2;Temp;Humidity;BMP_temperature;BMP_pressure;BME280_temperature;BME280_humidity;BME280_pressure;Samples;Min_cycle;Max_cycle;Signal;HPM_P1;HPM_P2
2021/04/08 00:00:41;;;;;;;15.07;4.68;;;4.40;95.20;;;;;;4952998;29;20103;-95
2021/04/08 00:03:09;;;;;;;11.90;3.17;;;4.40;95.20;;;;;;4949054;29;20146;-96
2021/04/08 00:05:35;;;;;;;6.55;2.70;;;4.40;95.20;;;;;;4946476;29;20015;-95
2021/04/08 00:08:01;;;;;;;14.75;2.75;;;4.40;95.20;;;;;;4946654;29;20040;-94
2021/04/08 00:10:28;;;;;;;11.80;2.88;;;4.40;95.20;;;;;;4944663;29;20026;-95
2021/04/08 00:12:54;;;;;;;8.27;2.90;;;4.40;95.20;;;;;;4943430;29;20023;-95
2021/04/08 00:15:20;;;;;;;6.35;2.28;;;4.40;95.20;;;;;;4943932;29;20012;-95
2021/04/08 00:17:46;;;;;;;6.40;2.95;;;4.30;95.30;;;;;;4944595;29;20066;-95
2021/04/08 00:20:22;;;;;;;11.05;3.00;;;4.40;95.60;;;;;;4944787;29;20058;-95
2021/04/08 00:22:48;;;;;;;8.20;2.67;;;4.40;95.30;;;;;;4947669;29;20063;-95
2021/04/08 00:25:15;;;;;;;9.25;2.10;;;4.40;95.50;;;;;;4946867;29;20039;-95
2021/04/08 00:27:42;;;;;;;4.28;1.92;;;4.30;95.20;;;;;;4944717;29;20027;-94
2021/04/08 00:30:09;;;;;;;5.80;2.42;;;4.40;95.20;;;;;;4943524;29;20126;-94
2021/04/08 00:32:34;;;;;;;7.95;2.90;;;4.30;95.20;;;;;;4945894;29;20031;-95
2021/04/08 00:35:00;;;;;;;6.70;2.53;;;4.30;95.20;;;;;;4956020;29;20031;-95
2021/04/08 00:37:27;;;;;;;5.85;2.45;;;4.30;95.30;;;;;;4958914;29;20039;-95
2021/04/08 00:39:53;;;;;;;5.30;2.03;;;4.30;95.30;;;;;;4951768;29;20036;-95
2021/04/08 00:42:22;;;;;;;5.40;1.77;;;4.30;95.30;;;;;;4953708;29;20027;-94
2021/04/08 00:44:47;;;;;;;6.65;1.98;;;4.30;95.30;;;;;;4949683;29;20035;-94
2021/04/08 00:47:13;;;;;;;7.05;2.05;;;4.30;95.30;;;;;;4949052;29;20027;-95
2021/04/08 00:49:39;;;;;;;5.13;1.98;;;4.30;95.20;;;;;;4950187;29;20058;-95
2021/04/08 00:52:06;;;;;;;6.57;1.95;;;4.30;95.20;;;;;;4965600;29;20038;-95
2021/04/08 00:54:33;;;;;;;7.13;1.88;;;4.30;95.20;;;;;;4931916;29;20054;-95
2021/04/08 00:56:59;;;;;;;5.90;1.88;;;4.20;95.20;;;;;;4948847;29;20039;-94
2021/04/08 00:59:24;;;;;;;4.00;2.25;;;4.30;95.20;;;;;;4947915;29;20030;-95
2021/04/08 01:01:52;;;;;;;5.60;2.00;;;4.30;95.20;;;;;;4935860;29;20461;-95
2021/04/08 01:04:18;;;;;;;7.40;1.88;;;4.30;95.20;;;;;;4923773;29;20020;-94
2021/04/08 01:06:44;;;;;;;5.15;1.90;;;4.30;95.10;;;;;;4923912;29;20028;-94
2021/04/08 01:09:09;;;;;;;7.20;2.10;;;4.20;95.10;;;;;;4922268;29;20032;-95
2021/04/08 01:11:35;;;;;;;6.50;2.03;;;4.20;95.10;;;;;;4924415;29;20035;-94
2021/04/08 01:14:01;;;;;;;10.25;2.45;;;4.20;95.10;;;;;;4925270;29;20024;-93
2021/04/08 01:16:55;;;;;;;7.53;2.40;;;4.20;95.10;;;;;;4925224;29;20024;-95
2021/04/08 01:19:48;;;;;;;5.78;2.10;;;4.20;95.20;;;;;;4903089;29;20048;-95
2021/04/08 01:22:37;;;;;;;5.90;2.17;;;4.20;95.20;;;;;;4926807;29;20028;-94
2021/04/08 01:25:28;;;;;;;7.55;2.28;;;4.10;95.20;;;;;;4917095;29;20035;-95
2021/04/08 01:28:27;;;;;;;5.97;2.42;;;4.10;95.20;;;;;;4923090;29;20091;-95
2021/04/08 01:31:00;;;;;;;3.15;1.73;;;4.10;95.30;;;;;;4905769;29;20032;-94
2021/04/08 01:33:34;;;;;;;7.63;3.03;;;4.10;95.40;;;;;;4921427;29;20024;-95
2021/04/08 01:36:07;;;;;;;5.63;2.33;;;4.00;95.40;;;;;;4922545;29;20031;-95
2021/04/08 01:38:48;;;;;;;7.47;2.38;;;4.00;95.50;;;;;;4929653;29;20124;-95
2021/04/08 01:41:18;;;;;;;3.72;1.90;;;4.00;95.60;;;;;;4928312;29;20119;-95
2021/04/08 01:43:46;;;;;;;7.30;2.67;;;4.00;95.70;;;;;;4929289;29;20076;-95
2021/04/08 01:46:14;;;;;;;4.75;2.03;;;4.00;95.70;;;;;;4928717;29;20028;-95
2021/04/08 01:48:43;;;;;;;5.43;2.83;;;4.00;95.80;;;;;;4927806;29;20470;-95
2021/04/08 01:51:10;;;;;;;8.40;2.35;;;3.90;95.80;;;;;;4926569;29;20036;-95
2021/04/08 01:53:43;;;;;;;10.13;2.55;;;4.00;96.10;;;;;;4924855;29;20039;-95
2021/04/08 01:56:10;;;;;;;5.50;2.10;;;4.00;95.90;;;;;;4924524;29;20035;-95
2021/04/08 01:58:38;;;;;;;12.52;3.92;;;3.90;96.10;;;;;;4922268;29;20032;-94
2021/04/08 02:01:04;;;;;;;7.75;2.00;;;3.90;96.20;;;;;;4923505;28;20023;-94
2021/04/08 02:03:31;;;;;;;5.10;2.17;;;3.90;96.40;;;;;;4944911;29;20033;-95
2021/04/08 02:06:01;;;;;;;5.43;2.00;;;3.90;96.70;;;;;;4945612;29;20034;-94
2021/04/08 02:08:27;;;;;;;11.88;2.83;;;3.90;96.40;;;;;;4946642;29;20058;-94
2021/04/08 02:10:55;;;;;;;6.28;2.13;;;4.00;96.60;;;;;;4945531;29;20096;-95
2021/04/08 02:13:23;;;;;;;7.65;2.65;;;4.00;96.70;;;;;;4945380;29;20026;-94
2021/04/08 02:15:49;;;;;;;7.70;2.33;;;4.00;96.80;;;;;;4944338;29;20046;-94
2021/04/08 02:18:17;;;;;;;5.07;2.15;;;4.00;97.00;;;;;;4943548;29;20504;-94
2021/04/08 02:20:46;;;;;;;12.00;4.05;;;4.10;97.10;;;;;;4948453;29;20108;-95
2021/04/08 02:23:19;;;;;;;7.53;2.55;;;4.00;97.30;;;;;;4930887;29;20039;-94
2021/04/08 02:25:45;;;;;;;5.30;2.30;;;4.00;97.40;;;;;;4945122;29;20031;-94
2021/04/08 02:28:11;;;;;;;5.03;2.30;;;4.00;97.50;;;;;;4945501;29;20031;-94
2021/04/08 02:30:46;;;;;;;5.53;2.83;;;4.00;97.60;;;;;;4945599;29;20023;-94
2021/04/08 02:33:20;;;;;;;6.03;2.60;;;4.00;97.70;;;;;;4945358;29;20032;-95
2021/04/08 02:35:46;;;;;;;8.80;2.83;;;4.00;97.80;;;;;;4944898;29;20024;-95
2021/04/08 02:38:12;;;;;;;8.43;3.50;;;4.00;97.90;;;;;;4945665;29;20035;-94
2021/04/08 02:40:40;;;;;;;6.32;2.72;;;4.00;98.00;;;;;;4948099;29;20058;-95
2021/04/08 02:43:09;;;;;;;8.43;2.67;;;4.10;98.00;;;;;;4951685;29;20031;-95
2021/04/08 02:45:35;;;;;;;7.60;2.85;;;4.10;98.10;;;;;;4951420;29;20027;-95
2021/04/08 02:48:05;;;;;;;4.68;2.50;;;4.10;98.10;;;;;;4955426;28;20034;-95
2021/04/08 02:50:30;;;;;;;4.47;2.57;;;4.10;98.20;;;;;;4969631;28;20098;-94
2021/04/08 02:53:09;;;;;;;5.75;2.53;;;4.10;98.30;;;;;;4966449;28;20476;-95
2021/04/08 02:55:39;;;;;;;12.68;3.13;;;4.10;98.40;;;;;;4965810;28;20031;-95
2021/04/08 02:58:07;;;;;;;11.23;4.45;;;4.10;98.40;;;;;;4964544;28;20564;-95
2021/04/08 03:00:39;;;;;;;4.97;2.58;;;4.10;98.50;;;;;;4965143;28;20027;-95
2021/04/08 03:03:08;;;;;;;9.23;2.88;;;4.10;98.70;;;;;;4967671;28;20061;-95
2021/04/08 03:05:42;;;;;;;10.77;2.88;;;4.10;98.90;;;;;;4966700;28;20087;-94
2021/04/08 03:08:11;;;;;;;15.20;4.95;;;4.10;99.00;;;;;;4965179;28;20030;-94
2021/04/08 03:10:40;;;;;;;11.30;3.17;;;4.10;99.10;;;;;;4966758;28;20091;-94
2021/04/08 03:13:07;;;;;;;9.57;3.70;;;4.00;99.30;;;;;;4969733;28;20061;-94
2021/04/08 03:15:38;;;;;;;7.53;3.05;;;4.10;99.50;;;;;;4969259;28;20022;-95
2021/04/08 03:18:15;;;;;;;7.82;2.90;;;4.10;99.70;;;;;;4969911;28;20035;-95
2021/04/08 03:20:46;;;;;;;5.25;2.95;;;4.10;99.90;;;;;;4969320;28;20126;-95
2021/04/08 03:23:13;;;;;;;9.02;2.92;;;4.00;99.90;;;;;;4969042;28;20035;-95
2021/04/08 03:25:42;;;;;;;5.30;2.95;;;4.10;99.90;;;;;;4966806;28;20488;-95
2021/04/08 03:28:12;;;;;;;7.30;2.92;;;4.00;99.90;;;;;;4973809;28;20034;-94
2021/04/08 03:30:40;;;;;;;8.97;3.20;;;4.10;99.90;;;;;;4969160;28;20456;-95
2021/04/08 03:33:10;;;;;;;5.43;2.80;;;4.10;99.90;;;;;;4967176;28;20286;-94
2021/04/08 03:35:37;;;;;;;;;;;4.10;99.90;;;;;;4985994;28;20027;-94
2021/04/08 03:38:05;;;;;;;4.88;2.67;;;4.10;99.90;;;;;;4971093;28;19905;-95
2021/04/08 03:40:32;;;;;;;6.55;3.33;;;4.10;99.90;;;;;;4976972;28;20023;-95
2021/04/08 03:42:59;;;;;;;9.98;3.38;;;4.10;99.90;;;;;;4960073;28;20042;-94
2021/04/08 03:45:25;;;;;;;10.48;3.55;;;4.10;99.90;;;;;;4971460;28;20027;-95
2021/04/08 03:47:59;;;;;;;15.85;3.28;;;4.10;99.90;;;;;;4966446;28;20033;-95
2021/04/08 03:50:26;;;;;;;10.77;3.35;;;4.10;99.90;;;;;;4969750;28;20480;-95
2021/04/08 03:52:52;;;;;;;12.23;4.38;;;4.10;99.90;;;;;;4967061;28;20026;-94
2021/04/08 03:55:20;;;;;;;22.20;6.25;;;4.10;99.90;;;;;;4967629;28;20035;-94
2021/04/08 03:57:47;;;;;;;15.27;5.65;;;4.10;99.90;;;;;;4967831;28;20106;-95
2021/04/08 04:00:13;;;;;;;17.05;5.60;;;4.00;99.90;;;;;;4963420;28;20035;-95
2021/04/08 04:02:41;;;;;;;10.13;3.78;;;4.00;99.90;;;;;;4965482;28;20047;-94
2021/04/08 04:05:09;;;;;;;7.05;3.67;;;4.00;99.90;;;;;;4965447;28;20058;-95
2021/04/08 04:07:38;;;;;;;9.65;3.70;;;4.00;99.90;;;;;;4971851;28;20033;-94
2021/04/08 04:10:05;;;;;;;12.10;5.03;;;4.00;99.90;;;;;;4953342;29;20031;-94
2021/04/08 04:12:35;;;;;;;13.88;5.13;;;4.10;99.90;;;;;;4951785;29;20118;-95
2021/04/08 04:15:05;;;;;;;9.25;5.40;;;4.10;99.90;;;;;;4949597;29;20030;-94
2021/04/08 04:17:32;;;;;;;9.52;4.05;;;4.00;99.90;;;;;;4944626;29;20046;-95
2021/04/08 04:19:59;;;;;;;14.32;6.47;;;4.00;99.90;;;;;;4945019;29;20374;-94
2021/04/08 04:22:25;;;;;;;12.90;5.07;;;4.00;99.90;;;;;;4945026;29;20019;-95
2021/04/08 04:24:52;;;;;;;8.52;3.70;;;4.10;99.90;;;;;;4946597;29;20027;-95
2021/04/08 04:27:18;;;;;;;8.52;4.43;;;4.10;99.90;;;;;;4945729;29;20035;-94
2021/04/08 04:29:44;;;;;;;7.97;4.15;;;4.10;99.90;;;;;;4945887;29;20114;-95
2021/04/08 04:32:11;;;;;;;7.88;4.15;;;4.10;99.90;;;;;;4946210;29;20090;-94
2021/04/08 04:34:41;;;;;;;7.65;4.07;;;4.10;99.90;;;;;;4945540;29;20031;-95
2021/04/08 04:37:07;;;;;;;10.40;4.13;;;4.10;99.90;;;;;;4945007;29;20042;-95
2021/04/08 04:39:33;;;;;;;8.80;3.88;;;4.10;99.90;;;;;;4944796;29;20035;-94
2021/04/08 04:42:01;;;;;;;7.53;4.50;;;4.10;99.90;;;;;;4943501;29;20047;-94
2021/04/08 04:44:27;;;;;;;8.85;4.47;;;4.10;99.90;;;;;;4943283;29;20070;-94
2021/04/08 04:46:52;;;;;;;6.00;3.90;;;4.10;99.90;;;;;;4943334;29;20031;-95
2021/04/08 04:49:18;;;;;;;8.95;4.75;;;4.10;99.90;;;;;;4942886;29;20535;-94
2021/04/08 04:51:44;;;;;;;8.02;4.90;;;4.10;99.90;;;;;;4941989;29;20023;-94
2021/04/08 04:54:10;;;;;;;7.47;3.60;;;4.10;99.90;;;;;;4941813;29;20033;-94
2021/04/08 04:56:35;;;;;;;11.45;3.30;;;4.10;99.90;;;;;;4941886;29;20028;-94
2021/04/08 04:59:01;;;;;;;8.10;4.13;;;4.10;99.90;;;;;;4942651;29;20560;-94
2021/04/08 05:01:27;;;;;;;10.07;4.60;;;4.10;99.90;;;;;;4941491;29;20047;-94
2021/04/08 05:03:53;;;;;;;9.93;4.07;;;4.10;99.90;;;;;;4941356;29;20134;-95
2021/04/08 05:06:21;;;;;;;4.60;3.42;;;4.10;99.90;;;;;;4961362;28;20042;-94
2021/04/08 05:08:47;;;;;;;9.05;3.22;;;4.10;99.90;;;;;;4964626;28;20091;-94
2021/04/08 05:11:12;;;;;;;5.53;3.30;;;4.20;99.90;;;;;;4964617;28;20035;-93
2021/04/08 05:13:38;;;;;;;6.07;3.63;;;4.20;99.90;;;;;;4964010;28;20039;-94
2021/04/08 05:16:04;;;;;;;7.57;3.63;;;4.20;99.90;;;;;;4949673;28;20035;-94
2021/04/08 05:18:30;;;;;;;10.68;3.55;;;4.20;99.90;;;;;;4944417;29;20082;-94
2021/04/08 05:20:57;;;;;;;4.45;3.20;;;4.30;99.90;;;;;;4946049;29;20065;-95
2021/04/08 05:23:23;;;;;;;5.68;3.47;;;4.20;99.90;;;;;;4944705;29;20038;-95
2021/04/08 05:25:50;;;;;;;6.32;3.70;;;4.30;99.90;;;;;;4945996;29;20376;-94
2021/04/08 05:28:16;;;;;;;6.55;3.60;;;4.30;99.90;;;;;;4945371;29;20027;-93
2021/04/08 05:30:42;;;;;;;7.68;3.75;;;4.30;99.90;;;;;;4943207;29;20079;-94
2021/04/08 05:33:08;;;;;;;5.13;3.63;;;4.40;99.90;;;;;;4943042;29;20045;-95
2021/04/08 05:35:36;;;;;;;8.90;5.28;;;4.40;99.90;;;;;;4944646;29;20043;-94
2021/04/08 05:38:02;;;;;;;7.75;3.80;;;4.40;99.90;;;;;;4944848;29;20055;-93
2021/04/08 05:40:27;;;;;;;7.28;4.75;;;4.40;99.90;;;;;;4947477;29;20034;-93
2021/04/08 05:42:53;;;;;;;7.97;5.07;;;4.40;99.90;;;;;;4947841;29;20027;-95
2021/04/08 05:45:21;;;;;;;9.32;5.90;;;4.50;99.90;;;;;;4948859;29;20318;-92
2021/04/08 05:47:48;;;;;;;6.80;4.25;;;4.50;99.90;;;;;;4947518;29;20038;-94
2021/04/08 05:50:15;;;;;;;9.25;6.38;;;4.50;99.90;;;;;;4943371;29;20087;-93
2021/04/08 05:52:41;;;;;;;8.00;4.38;;;4.60;99.90;;;;;;4945916;29;20485;-94
2021/04/08 05:55:08;;;;;;;8.85;5.22;;;4.60;99.90;;;;;;4948661;29;20031;-93
2021/04/08 05:57:34;;;;;;;11.23;6.32;;;4.60;99.90;;;;;;4951152;29;20061;-94
2021/04/08 06:00:00;;;;;;;10.50;6.43;;;4.60;99.90;;;;;;4952952;29;20035;-94
2021/04/08 06:02:29;;;;;;;6.63;3.75;;;4.70;99.90;;;;;;4956951;29;20106;-93
2021/04/08 06:04:56;;;;;;;11.25;6.00;;;4.70;99.90;;;;;;4936137;29;20047;-93
2021/04/08 06:07:27;;;;;;;10.23;5.85;;;4.70;99.90;;;;;;4959484;29;20027;-93
2021/04/08 06:09:53;;;;;;;11.68;5.97;;;4.70;99.90;;;;;;5049952;23;20134;-95
2021/04/08 06:12:19;;;;;;;10.65;5.75;;;4.70;99.90;;;;;;4939701;29;20024;-95
2021/04/08 06:14:48;;;;;;;10.13;6.03;;;4.80;99.90;;;;;;4946935;29;20064;-94
2021/04/08 06:17:15;;;;;;;17.38;7.82;;;4.80;99.90;;;;;;4938972;29;20044;-95
2021/04/08 06:19:41;;;;;;;14.95;8.73;;;4.80;99.90;;;;;;4943288;29;20029;-95
2021/04/08 06:22:10;;;;;;;8.75;5.18;;;4.90;99.90;;;;;;4937491;29;20041;-95
2021/04/08 06:24:36;;;;;;;17.95;9.98;;;4.80;99.90;;;;;;4955302;29;20031;-94
2021/04/08 06:27:02;;;;;;;16.13;8.95;;;4.80;99.90;;;;;;4958518;29;20040;-95
2021/04/08 06:32:04;;;;;;;14.25;8.93;;;5.00;99.90;;;;;;4981572;23;20055;-94
2021/04/08 06:34:35;;;;;;;13.60;7.93;;;5.00;99.90;;;;;;4978518;29;20023;-94
2021/04/08 06:37:09;;;;;;;16.55;6.97;;;5.10;99.90;;;;;;4964768;29;20083;-94
2021/04/08 06:39:35;;;;;;;17.42;8.18;;;5.10;99.90;;;;;;4963403;28;20055;-95
2021/04/08 06:42:01;;;;;;;15.15;7.82;;;5.20;99.90;;;;;;4963588;29;20050;-95
2021/04/08 06:47:04;;;;;;;14.70;7.07;;;5.20;99.90;;;;;;5114424;23;20058;-94
2021/04/08 06:49:43;;;;;;;10.85;6.40;;;5.30;99.90;;;;;;4982754;28;20038;-94
2021/04/08 06:52:10;;;;;;;16.17;6.80;;;5.30;99.90;;;;;;4972072;28;20023;-95
2021/04/08 06:54:38;;;;;;;18.52;7.78;;;5.40;99.90;;;;;;4967671;29;20035;-93
2021/04/08 06:57:05;;;;;;;12.48;5.47;;;5.40;99.90;;;;;;4954884;28;20477;-94
2021/04/08 06:59:34;;;;;;;10.13;5.15;;;5.50;99.90;;;;;;4961731;29;20027;-93
2021/04/08 07:02:00;;;;;;;12.10;5.03;;;5.60;99.90;;;;;;4960792;28;20038;-94
2021/04/08 07:04:26;;;;;;;9.20;5.13;;;5.60;99.90;;;;;;4958059;29;20432;-93
2021/04/08 07:06:52;;;;;;;11.88;4.03;;;5.70;99.90;;;;;;4957199;29;20027;-94
2021/04/08 07:09:18;;;;;;;10.10;3.72;;;5.70;99.90;;;;;;4970156;28;20389;-94
2021/04/08 07:11:46;;;;;;;6.18;3.47;;;5.70;99.90;;;;;;4996429;28;20118;-93
2021/04/08 07:14:14;;;;;;;11.95;3.88;;;5.70;99.90;;;;;;4993709;28;20027;-94
2021/04/08 07:16:43;;;;;;;11.43;4.03;;;5.80;99.90;;;;;;4971529;28;20027;-94
2021/04/08 07:19:11;;;;;;;6.47;3.67;;;5.80;99.90;;;;;;4957342;29;20031;-95
2021/04/08 07:21:39;;;;;;;10.25;3.55;;;5.90;99.90;;;;;;4951715;28;20118;-93
2021/04/08 07:24:24;;;;;;;10.50;3.70;;;5.90;99.90;;;;;;4955050;28;20027;-94
2021/04/08 07:27:02;;;;;;;8.77;2.47;;;6.00;99.90;;;;;;4957049;28;20023;-94
2021/04/08 07:29:40;;;;;;;4.32;2.40;;;6.10;99.90;;;;;;4941823;29;20023;-92
2021/04/08 07:32:12;;;;;;;6.55;2.63;;;6.20;99.90;;;;;;4944047;29;20031;-92
2021/04/08 07:34:46;;;;;;;6.43;2.05;;;6.30;99.90;;;;;;4943152;29;20039;-92
2021/04/08 07:37:12;;;;;;;9.60;2.00;;;6.50;99.90;;;;;;4938749;29;20039;-94
2021/04/08 07:39:45;;;;;;;8.50;1.67;;;6.60;99.90;;;;;;4941619;29;20178;-94
2021/04/08 07:42:17;;;;;;;7.38;2.03;;;6.70;99.90;;;;;;4949804;29;20023;-95
2021/04/08 07:44:58;;;;;;;11.18;1.80;;;6.80;99.90;;;;;;4965181;29;20019;-94
2021/04/08 07:47:26;;;;;;;;;;;6.90;99.90;;;;;;4923805;29;20043;-94
2021/04/08 07:50:11;;;;;;;3.90;1.50;;;7.00;99.90;;;;;;4925179;29;19911;-90
2021/04/08 07:52:40;;;;;;;9.18;1.77;;;7.10;99.90;;;;;;4920007;29;21464;-91
2021/04/08 07:55:08;;;;;;;8.38;2.33;;;7.20;99.90;;;;;;4924499;29;20066;-91
2021/04/08 07:57:52;;;;;;;7.38;1.67;;;7.20;99.90;;;;;;4920505;29;20575;-91
2021/04/08 08:00:38;;;;;;;7.20;1.95;;;7.20;99.90;;;;;;4923648;29;20529;-92
2021/04/08 08:03:07;;;;;;;8.65;1.90;;;7.30;99.90;;;;;;4921005;29;20500;-94
2021/04/08 08:05:36;;;;;;;10.07;1.70;;;7.40;99.90;;;;;;4929708;29;20039;-91
2021/04/08 08:08:10;;;;;;;4.03;1.67;;;7.40;99.90;;;;;;4919451;29;20056;-94
2021/04/08 08:10:40;;;;;;;6.30;1.80;;;7.50;99.90;;;;;;4920535;29;20385;-92
2021/04/08 08:13:23;;;;;;;7.00;1.80;;;7.50;99.90;;;;;;4916579;29;20095;-94
2021/04/08 08:15:49;;;;;;;8.65;2.65;;;7.50;99.90;;;;;;4930657;29;20034;-93
2021/04/08 08:18:37;;;;;;;9.30;2.42;;;7.50;99.90;;;;;;4916015;29;20060;-94
2021/04/08 08:21:11;;;;;;;8.23;2.42;;;7.50;99.90;;;;;;4916323;29;20035;-94
2021/04/08 08:23:46;;;;;;;4.38;2.10;;;7.50;99.90;;;;;;4917115;29;20099;-92
2021/04/08 08:26:43;;;;;;;9.00;2.80;;;7.50;99.90;;;;;;4916312;29;20032;-92
2021/04/08 08:29:16;;;;;;;5.40;2.10;;;7.50;99.90;;;;;;4917129;29;20119;-92
2021/04/08 08:31:51;;;;;;;6.72;1.90;;;7.50;99.90;;;;;;4916665;29;20036;-91
2021/04/08 08:34:22;;;;;;;9.85;2.28;;;7.60;99.90;;;;;;4916245;29;20028;-91
2021/04/08 08:36:59;;;;;;;8.40;1.73;;;7.50;99.90;;;;;;4916793;29;20027;-93
2021/04/08 08:39:30;;;;;;;6.05;1.70;;;7.50;99.90;;;;;;4917770;29;20135;-91
2021/04/08 08:41:58;;;;;;;4.07;1.50;;;7.60;99.90;;;;;;4924312;29;20028;-91
2021/04/08 08:44:24;;;;;;;7.15;2.28;;;7.60;99.90;;;;;;4923742;29;20069;-93
2021/04/08 08:46:55;;;;;;;5.75;1.92;;;7.70;99.90;;;;;;4944569;28;20047;-92
2021/04/08 08:49:25;;;;;;;4.65;2.38;;;7.70;99.90;;;;;;4961670;28;20031;-90
2021/04/08 08:51:54;;;;;;;5.95;2.10;;;7.70;99.90;;;;;;4939460;29;20038;-92
2021/04/08 08:54:20;;;;;;;4.72;2.67;;;7.80;99.90;;;;;;4942844;29;20082;-92
2021/04/08 08:56:46;;;;;;;6.70;1.70;;;7.90;99.90;;;;;;4964321;28;20528;-91
2021/04/08 08:59:12;;;;;;;7.78;3.90;;;7.90;99.90;;;;;;4963654;28;20027;-92
2021/04/08 09:01:39;;;;;;;6.18;1.63;;;7.90;99.90;;;;;;4951237;28;20030;-92
2021/04/08 09:04:05;;;;;;;7.70;1.60;;;8.00;99.90;;;;;;4948504;29;20381;-94
2021/04/08 09:06:32;;;;;;;6.05;1.92;;;8.00;99.90;;;;;;4951999;28;20058;-91
2021/04/08 09:09:05;;;;;;;9.63;4.07;;;8.00;99.90;;;;;;4952307;28;20020;-93
2021/04/08 09:11:33;;;;;;;5.63;2.00;;;8.10;99.90;;;;;;4950416;28;20492;-91
2021/04/08 09:14:00;;;;;;;6.32;2.22;;;8.20;99.90;;;;;;4951391;28;20023;-93
2021/04/08 09:16:28;;;;;;;6.50;2.20;;;8.20;99.90;;;;;;4949021;28;20027;-91
2021/04/08 09:19:00;;;;;;;6.43;2.72;;;8.30;99.90;;;;;;4964748;28;20429;-92
2021/04/08 09:21:27;;;;;;;9.23;2.85;;;8.40;99.90;;;;;;4949175;28;20027;-91
2021/04/08 09:24:22;;;;;;;4.88;2.15;;;8.40;99.90;;;;;;4953841;28;20028;-92
2021/04/08 09:26:57;;;;;;;3.05;1.33;;;8.40;99.90;;;;;;4933609;28;20038;-91
2021/04/08 09:29:36;;;;;;;6.40;1.63;;;8.40;99.90;;;;;;4941403;29;20019;-92
2021/04/08 09:32:26;;;;;;;3.40;1.67;;;8.40;99.90;;;;;;4955559;28;20424;-92
2021/04/08 09:35:12;;;;;;;8.13;2.33;;;8.40;99.90;;;;;;4948041;28;20038;-92
2021/04/08 09:37:47;;;;;;;5.70;2.67;;;8.40;99.90;;;;;;4954384;28;20199;-90
2021/04/08 09:40:28;;;;;;;3.63;1.92;;;8.50;99.90;;;;;;4944550;28;20118;-92
2021/04/08 09:43:05;;;;;;;4.35;1.95;;;8.50;99.90;;;;;;4964883;28;20033;-92
2021/04/08 09:45:33;;;;;;;5.05;1.80;;;8.50;99.90;;;;;;4950507;28;20026;-92
2021/04/08 09:48:22;;;;;;;4.15;1.85;;;8.60;99.90;;;;;;4947702;28;20493;-92
2021/04/08 09:50:52;;;;;;;5.30;2.13;;;8.70;99.90;;;;;;4947102;28;20167;-93
2021/04/08 09:53:41;;;;;;;6.60;2.45;;;8.70;99.90;;;;;;4966213;28;20496;-92
2021/04/08 09:56:08;;;;;;;3.92;1.70;;;8.90;99.90;;;;;;4949732;28;20035;-92
2021/04/08 09:58:38;;;;;;;4.05;1.83;;;9.10;99.90;;;;;;4941180;29;20042;-93
2021/04/08 10:01:09;;;;;;;4.00;1.80;;;9.30;99.90;;;;;;4972333;28;20019;-92
2021/04/08 10:03:35;;;;;;;7.57;1.60;;;9.40;99.90;;;;;;4973292;28;20066;-92
2021/04/08 10:06:13;;;;;;;2.58;1.20;;;9.40;99.90;;;;;;4974080;28;20023;-91
2021/04/08 10:08:40;;;;;;;3.70;1.30;;;9.60;99.70;;;;;;4963507;28;20062;-90
2021/04/08 10:11:06;;;;;;;7.05;1.50;;;9.60;98.40;;;;;;4984091;28;20037;-90
2021/04/08 10:13:34;;;;;;;2.65;1.40;;;9.50;96.80;;;;;;4973020;29;20031;-90
2021/04/08 10:16:15;;;;;;;6.72;1.70;;;9.50;96.60;;;;;;4967819;28;20027;-92
2021/04/08 10:18:42;;;;;;;;;;;9.40;96.30;;;;;;4977193;28;20429;-92
2021/04/08 10:21:12;;;;;;;4.38;1.55;;;9.50;96.00;;;;;;4957976;28;19926;-92
2021/04/08 10:23:49;;;;;;;9.02;1.75;;;9.50;95.30;;;;;;4947434;29;20066;-91
2021/04/08 10:26:28;;;;;;;4.85;1.45;;;9.50;94.10;;;;;;4942960;29;20027;-92
2021/04/08 10:28:56;;;;;;;6.57;1.50;;;9.70;93.90;;;;;;4942565;29;20019;-91
2021/04/08 10:31:32;;;;;;;4.10;1.08;;;9.80;94.20;;;;;;4958692;29;20043;-91
2021/04/08 10:34:08;;;;;;;4.43;1.40;;;9.90;93.30;;;;;;4941765;29;20073;-92
2021/04/08 10:36:43;;;;;;;6.50;1.50;;;10.10;91.80;;;;;;4941052;29;20167;-91
2021/04/08 10:39:16;;;;;;;5.90;1.30;;;10.10;90.90;;;;;;4941097;29;20082;-91
2021/04/08 10:41:59;;;;;;;4.60;1.80;;;10.30;90.60;;;;;;4941163;29;20548;-92
2021/04/08 10:44:29;;;;;;;3.28;1.10;;;10.40;88.40;;;;;;4958272;29;20366;-92
2021/04/08 10:47:00;;;;;;;4.28;1.58;;;10.60;86.30;;;;;;4919567;29;20049;-93
2021/04/08 10:49:32;;;;;;;;;;;10.80;85.60;;;;;;4910663;29;20032;-93
2021/04/08 10:52:07;;;;;;;4.97;1.05;;;11.00;85.20;;;;;;4900086;29;20353;-91
2021/04/08 10:54:35;;;;;;;3.72;0.95;;;11.30;84.20;;;;;;4901176;29;20032;-92
2021/04/08 10:57:02;;;;;;;4.10;1.30;;;11.50;83.50;;;;;;4900973;29;20394;-93
2021/04/08 10:59:28;;;;;;;8.20;1.30;;;11.80;81.70;;;;;;4900925;29;20029;-92
2021/04/08 11:01:55;;;;;;;5.80;1.55;;;12.00;79.90;;;;;;4900225;29;20053;-93
2021/04/08 11:04:22;;;;;;;6.20;1.05;;;12.10;78.70;;;;;;4901309;29;20032;-93
2021/04/08 11:06:51;;;;;;;5.88;1.40;;;12.10;77.80;;;;;;4913815;29;20024;-92
2021/04/08 11:09:24;;;;;;;2.58;1.50;;;12.10;77.20;;;;;;4928070;29;20490;-91
2021/04/08 11:11:51;;;;;;;8.02;1.55;;;12.10;77.00;;;;;;4925762;29;20039;-92
2021/04/08 11:14:22;;;;;;;5.65;1.80;;;12.00;77.40;;;;;;4925452;29;20102;-93
2021/04/08 11:16:49;;;;;;;4.05;1.85;;;11.90;76.60;;;;;;4929964;29;20034;-92
2021/04/08 11:19:15;;;;;;;2.42;1.00;;;11.80;77.20;;;;;;4924716;29;20039;-91
2021/04/08 11:21:41;;;;;;;5.18;2.08;;;11.70;77.30;;;;;;4924409;29;20099;-92
2021/04/08 11:24:08;;;;;;;3.45;0.85;;;11.70;78.10;;;;;;4924993;29;20438;-92
2021/04/08 11:26:46;;;;;;;7.72;1.35;;;11.80;78.80;;;;;;4928781;29;20016;-91
2021/04/08 11:29:17;;;;;;;5.03;1.10;;;12.00;78.70;;;;;;4914781;29;20055;-91
2021/04/08 11:31:43;;;;;;;6.13;1.05;;;12.10;77.10;;;;;;4915464;29;20028;-92
2021/04/08 11:34:09;;;;;;;3.80;0.93;;;12.10;76.40;;;;;;4913945;29;20040;-92
2021/04/08 11:36:35;;;;;;;3.10;0.88;;;12.30;76.60;;;;;;4911063;29;20031;-90
2021/04/08 11:39:11;;;;;;;10.35;1.48;;;12.50;75.70;;;;;;4919142;29;20044;-90
2021/04/08 11:41:36;;;;;;;1.23;0.50;;;12.60;74.10;;;;;;4920123;29;20170;-90
2021/04/08 11:44:02;;;;;;;4.40;0.88;;;12.50;72.70;;;;;;4929732;29;20027;-91
2021/04/08 11:46:30;;;;;;;3.10;1.02;;;12.40;72.70;;;;;;4937978;29;20050;-91
2021/04/08 11:48:57;;;;;;;3.97;0.75;;;12.50;72.90;;;;;;4947602;29;20023;-93
2021/04/08 11:51:29;;;;;;;2.00;1.02;;;12.60;72.70;;;;;;4942315;29;20035;-92
2021/04/08 11:54:06;;;;;;;2.88;0.75;;;12.70;71.50;;;;;;4938566;29;20024;-91
2021/04/08 11:56:37;;;;;;;4.68;0.80;;;12.80;70.20;;;;;;4935101;29;20043;-92
2021/04/08 11:59:07;;;;;;;3.05;0.40;;;13.00;69.70;;;;;;4934703;29;20048;-92
2021/04/08 12:01:35;;;;;;;4.22;1.10;;;13.30;68.80;;;;;;4935496;29;20020;-91
2021/04/08 12:04:22;;;;;;;1.95;0.63;;;13.60;68.00;;;;;;4936120;29;20094;-91
2021/04/08 12:06:50;;;;;;;5.65;1.00;;;13.90;67.10;;;;;;4934816;29;20036;-92
2021/04/08 12:09:16;;;;;;;1.50;0.90;;;14.10;65.30;;;;;;4927757;29;20090;-93
2021/04/08 12:11:53;;;;;;;1.83;0.90;;;14.30;64.50;;;;;;4942758;29;20465;-92
2021/04/08 12:14:21;;;;;;;3.25;0.70;;;14.50;64.70;;;;;;4937903;29;20027;-91
2021/04/08 12:17:07;;;;;;;4.53;0.60;;;14.50;63.70;;;;;;4944116;29;20024;-93
2021/04/08 12:19:34;;;;;;;3.80;0.90;;;14.30;63.30;;;;;;4953015;29;20070;-92
2021/04/08 12:22:06;;;;;;;3.03;1.08;;;14.10;63.60;;;;;;4958056;29;20023;-90
2021/04/08 12:24:33;;;;;;;7.50;0.90;;;13.90;63.90;;;;;;4956742;29;20035;-94
2021/04/08 12:26:59;;;;;;;0.88;0.47;;;13.90;65.40;;;;;;4936820;29;20032;-92
2021/04/08 12:29:25;;;;;;;2.75;0.63;;;14.00;65.10;;;;;;4921866;29;20485;-92
2021/04/08 12:31:56;;;;;;;3.97;1.10;;;14.10;64.90;;;;;;4926882;29;20503;-90
2021/04/08 12:34:22;;;;;;;8.95;1.90;;;14.00;64.40;;;;;;4921586;29;20389;-92
2021/04/08 12:36:49;;;;;;;2.88;1.13;;;13.80;64.70;;;;;;4925650;29;20064;-91
2021/04/08 12:39:15;;;;;;;2.30;0.77;;;13.70;65.80;;;;;;4921292;29;20495;-92
2021/04/08 12:41:40;;;;;;;4.00;0.50;;;13.60;64.00;;;;;;4921130;29;20035;-90
2021/04/08 12:44:06;;;;;;;3.88;0.60;;;13.50;63.40;;;;;;4931358;29;20040;-90
2021/04/08 12:46:32;;;;;;;3.03;0.70;;;13.50;63.00;;;;;;4933609;29;20057;-92
2021/04/08 12:49:00;;;;;;;4.13;1.35;;;13.70;62.50;;;;;;4931309;29;20028;-92
2021/04/08 12:51:25;;;;;;;2.05;0.88;;;14.00;61.80;;;;;;4935075;29;20035;-91
2021/04/08 12:53:51;;;;;;;1.55;0.52;;;14.20;61.70;;;;;;4940017;29;20103;-90
2021/04/08 12:56:17;;;;;;;2.97;0.82;;;14.30;60.10;;;;;;4938549;29;20027;-91
2021/04/08 12:58:43;;;;;;;5.10;1.35;;;14.40;60.50;;;;;;4936832;29;20074;-91
2021/04/08 13:01:09;;;;;;;3.22;0.50;;;14.50;60.60;;;;;;4935899;29;20458;-90
2021/04/08 13:03:35;;;;;;;4.97;0.73;;;14.40;60.30;;;;;;4934683;29;20035;-89
2021/04/08 13:06:01;;;;;;;3.70;0.90;;;14.50;60.50;;;;;;4934538;29;20046;-90
2021/04/08 13:08:27;;;;;;;6.00;1.20;;;14.50;60.70;;;;;;4936285;29;20047;-92
2021/04/08 13:10:52;;;;;;;2.08;0.30;;;14.50;60.80;;;;;;4937021;29;20024;-93